Time;durP1;ratioP1;P1;durP2;ratioP2;P2;SDS_P1;SDS_P2;PMS_P1;PMS_P2;Temp;Humidity;BMP_temperature;BMP_pressure;BME280_temperature;BME280_humidity;BME280_pressure;Samples;Min_cycle;Max_cycle;Signal;HPM_P1;HPM_P2
2023/11/05 05:02:36;;;;;;;1.33;1.23;;;8.60;99.90;;;;;;4856716;23;20293;-74
2023/11/05 05:05:03;;;;;;;1.17;1.17;;;8.50;99.90;;;;;;4856161;29;20236;-74
2023/11/05 05:07:29;;;;;;;1.60;1.50;;;8.50;99.90;;;;;;4855870;29;20209;-73
2023/11/05 05:09:56;;;;;;;5.55;1.25;;;8.60;99.90;;;;;;4856971;29;20217;-74
2023/11/05 05:12:23;;;;;;;1.45;1.45;;;8.60;99.90;;;;;;4855765;29;20717;-74
2023/11/05 05:14:50;;;;;;;1.58;1.48;;;8.60;99.90;;;;;;4856718;29;20304;-74
2023/11/05 05:17:17;;;;;;;1.58;1.52;;;8.60;99.90;;;;;;4858378;29;20211;-74
2023/11/05 05:19:45;;;;;;;1.95;1.95;;;8.60;99.90;;;;;;4854862;29;20268;-74
2023/11/05 05:22:12;;;;;;;2.00;1.90;;;8.60;99.90;;;;;;4860935;29;20229;-74
2023/11/05 05:24:39;;;;;;;4.03;1.83;;;8.60;99.90;;;;;;4856344;29;20214;-74
2023/11/05 05:27:06;;;;;;;2.17;2.13;;;8.60;99.90;;;;;;4853772;29;20209;-74
2023/11/05 05:29:33;;;;;;;1.90;1.90;;;8.60;99.90;;;;;;4858477;29;20657;-73
2023/11/05 05:31:59;;;;;;;2.17;2.03;;;8.60;99.90;;;;;;4859900;29;20232;-73
2023/11/05 05:34:26;;;;;;;1.55;1.55;;;8.70;99.90;;;;;;4857334;29;20235;-73
2023/11/05 05:36:54;;;;;;;1.80;1.70;;;8.70;99.90;;;;;;4859077;29;20426;-74
2023/11/05 05:39:21;;;;;;;1.60;1.60;;;8.70;99.90;;;;;;4858582;29;20239;-74
2023/11/05 05:41:48;;;;;;;1.75;1.65;;;8.70;99.90;;;;;;4859121;29;20236;-73
2023/11/05 05:44:15;;;;;;;2.33;1.45;;;8.70;99.90;;;;;;4855691;29;20209;-74
2023/11/05 05:46:42;;;;;;;1.75;1.75;;;8.70;99.90;;;;;;4859812;29;20213;-74
2023/11/05 05:49:09;;;;;;;1.70;1.60;;;8.70;99.90;;;;;;4852202;29;20209;-74
2023/11/05 05:51:36;;;;;;;1.40;1.40;;;8.70;99.90;;;;;;4854824;29;20250;-73
2023/11/05 05:54:05;;;;;;;1.58;1.38;;;8.70;99.90;;;;;;4857144;29;20221;-74
2023/11/05 05:56:32;;;;;;;1.45;1.45;;;8.70;99.90;;;;;;4858280;29;20239;-74
2023/11/05 05:58:58;;;;;;;1.65;1.65;;;8.80;99.90;;;;;;4855453;29;20236;-74
2023/11/05 06:01:25;;;;;;;1.73;1.73;;;8.80;99.90;;;;;;4857855;29;20240;-74
2023/11/05 06:03:52;;;;;;;1.20;1.20;;;8.80;99.90;;;;;;4856174;29;20212;-74
2023/11/05 06:06:19;;;;;;;1.30;1.13;;;8.70;99.90;;;;;;4853993;29;20289;-73
2023/11/05 06:08:46;;;;;;;1.55;1.55;;;8.70;99.90;;;;;;4853132;29;20216;-73
2023/11/05 06:11:14;;;;;;;1.95;1.50;;;8.70;99.90;;;;;;4853562;29;20229;-72
2023/11/05 06:13:41;;;;;;;3.55;1.55;;;8.70;99.90;;;;;;4856804;29;20214;-73
2023/11/05 06:16:08;;;;;;;2.70;1.73;;;8.70;99.90;;;;;;4851112;29;20899;-73
2023/11/05 06:18:35;;;;;;;1.70;1.60;;;8.70;99.90;;;;;;4854050;29;20224;-73
2023/11/05 06:21:01;;;;;;;2.00;1.90;;;8.70;99.90;;;;;;4854453;29;20611;-73
2023/11/05 06:23:28;;;;;;;1.88;1.88;;;8.80;99.90;;;;;;4857655;29;20219;-73
2023/11/05 06:25:55;;;;;;;1.52;1.52;;;8.80;99.90;;;;;;4856152;29;20216;-75
2023/11/05 06:28:23;;;;;;;6.72;1.90;;;8.80;99.90;;;;;;4855090;29;20805;-74
2023/11/05 06:30:50;;;;;;;2.05;1.98;;;8.80;99.90;;;;;;4853557;29;20884;-75
2023/11/05 06:33:17;;;;;;;1.73;1.73;;;8.80;99.90;;;;;;4857990;29;20212;-75
2023/11/05 06:35:43;;;;;;;1.85;1.85;;;8.80;99.90;;;;;;4856280;29;20763;-75
2023/11/05 06:38:10;;;;;;;1.63;1.42;;;8.80;99.90;;;;;;4856425;29;20210;-75
2023/11/05 06:40:37;;;;;;;1.73;1.63;;;8.80;99.90;;;;;;4857472;29;20262;-75
2023/11/05 06:43:03;;;;;;;1.48;1.48;;;8.90;99.90;;;;;;4857395;29;20211;-75
2023/11/05 06:45:32;;;;;;;1.50;1.40;;;8.90;99.90;;;;;;4857722;29;20218;-73
2023/11/05 06:47:58;;;;;;;1.45;1.42;;;8.90;99.90;;;;;;4858320;29;20208;-73
2023/11/05 06:50:25;;;;;;;1.85;1.63;;;8.90;99.90;;;;;;4854660;29;20833;-73
2023/11/05 06:52:52;;;;;;;1.55;1.20;;;9.00;99.90;;;;;;4855512;29;20644;-73
2023/11/05 06:55:19;;;;;;;1.30;1.30;;;8.90;99.90;;;;;;4857194;29;20224;-73
2023/11/05 06:57:45;;;;;;;3.70;1.55;;;9.00;99.90;;;;;;4852800;29;20908;-74
2023/11/05 07:00:13;;;;;;;2.13;1.85;;;9.00;99.90;;;;;;4850261;29;20240;-74
2023/11/05 07:02:41;;;;;;;1.70;1.42;;;9.00;99.90;;;;;;4854058;29;20226;-72
2023/11/05 07:05:09;;;;;;;1.67;1.33;;;9.00;99.90;;;;;;4855277;29;20227;-73
2023/11/05 07:07:36;;;;;;;1.70;1.55;;;9.00;99.90;;;;;;4853004;29;20300;-74
2023/11/05 07:10:04;;;;;;;1.63;1.63;;;9.00;99.90;;;;;;4853408;29;20229;-73
2023/11/05 07:12:31;;;;;;;1.70;1.60;;;9.00;99.90;;;;;;4851701;29;20237;-74
2023/11/05 07:14:58;;;;;;;1.55;1.55;;;9.10;99.90;;;;;;4856741;29;20210;-74
2023/11/05 07:17:25;;;;;;;2.15;2.05;;;9.10;99.90;;;;;;4857124;29;20214;-74
2023/11/05 07:19:53;;;;;;;1.38;1.20;;;9.10;99.90;;;;;;4857444;29;20240;-73
2023/11/05 07:22:20;;;;;;;1.52;1.45;;;9.10;99.90;;;;;;4854154;29;20230;-73
2023/11/05 07:24:47;;;;;;;1.67;1.58;;;9.20;99.90;;;;;;4853904;29;20682;-74
2023/11/05 07:27:14;;;;;;;1.38;1.30;;;9.20;99.90;;;;;;4854001;29;20204;-75
2023/11/05 07:29:44;;;;;;;18.83;8.98;;;9.20;99.90;;;;;;4851812;29;20202;-74
2023/11/05 07:32:11;;;;;;;3.95;2.35;;;9.20;99.90;;;;;;4852689;29;20246;-74
2023/11/05 07:34:38;;;;;;;1.00;1.00;;;9.30;99.90;;;;;;4855070;29;20217;-75
2023/11/05 07:37:06;;;;;;;5.45;2.03;;;9.30;99.90;;;;;;4857167;29;20218;-76
2023/11/05 07:39:33;;;;;;;2.10;2.00;;;9.30;99.90;;;;;;4849505;29;20253;-75
2023/11/05 07:42:00;;;;;;;1.38;1.38;;;9.30;99.90;;;;;;4849501;29;20235;-74
2023/11/05 07:44:26;;;;;;;2.15;1.70;;;9.30;99.90;;;;;;4851371;29;20217;-74
2023/11/05 07:46:53;;;;;;;7.22;4.40;;;9.30;99.90;;;;;;4859037;29;20216;-79
2023/11/05 07:49:20;;;;;;;4.72;3.85;;;9.30;99.90;;;;;;4854230;29;20202;-75
2023/11/05 07:51:47;;;;;;;1.58;1.48;;;9.40;99.90;;;;;;4858862;29;20230;-76
2023/11/05 07:54:15;;;;;;;3.38;3.08;;;9.40;99.90;;;;;;4850895;29;20295;-76
2023/11/05 07:56:42;;;;;;;3.60;3.30;;;9.40;99.90;;;;;;4858669;29;20525;-75
2023/11/05 07:59:09;;;;;;;2.03;1.83;;;9.40;99.90;;;;;;4861113;29;20682;-75
2023/11/05 08:01:36;;;;;;;2.80;2.70;;;9.50;99.90;;;;;;4860126;29;20238;-74
2023/11/05 08:04:03;;;;;;;3.85;2.83;;;9.50;99.90;;;;;;4857746;29;20229;-74
2023/11/05 08:06:30;;;;;;;1.95;1.58;;;9.50;99.90;;;;;;4858322;29;20232;-73
2023/11/05 08:08:56;;;;;;;1.63;1.52;;;9.60;99.90;;;;;;4856883;29;20220;-72
2023/11/05 08:11:24;;;;;;;1.60;1.60;;;9.60;99.90;;;;;;4856962;29;20253;-73
2023/11/05 08:13:51;;;;;;;2.40;1.90;;;9.60;99.90;;;;;;4856450;29;20219;-73
2023/11/05 08:16:18;;;;;;;1.27;1.27;;;9.60;99.90;;;;;;4854902;29;20213;-74
2023/11/05 08:18:44;;;;;;;1.55;1.55;;;9.60;99.90;;;;;;4852999;29;20246;-74
2023/11/05 08:21:11;;;;;;;2.00;1.88;;;9.60;99.90;;;;;;4854053;29;20244;-74
2023/11/05 08:23:38;;;;;;;1.42;1.42;;;9.60;99.90;;;;;;4857611;29;20218;-74
2023/11/05 08:26:05;;;;;;;1.85;1.85;;;9.60;99.90;;;;;;4856214;29;20402;-74
2023/11/05 08:28:33;;;;;;;14.27;8.23;;;9.60;99.90;;;;;;4855167;29;20746;-74
2023/11/05 08:31:01;;;;;;;4.68;3.92;;;9.60;99.90;;;;;;4854800;29;20656;-74
2023/11/05 08:33:28;;;;;;;7.38;4.80;;;9.60;99.90;;;;;;4857187;29;20253;-73
2023/11/05 08:35:55;;;;;;;4.72;3.50;;;9.60;99.90;;;;;;4857191;29;20217;-74
2023/11/05 08:38:22;;;;;;;4.10;2.00;;;9.60;99.90;;;;;;4853945;29;20631;-74
2023/11/05 08:40:49;;;;;;;2.38;2.15;;;9.60;99.90;;;;;;4856312;29;20254;-74
2023/11/05 08:43:16;;;;;;;5.80;4.72;;;9.60;99.90;;;;;;4856555;29;20222;-73
2023/11/05 08:45:44;;;;;;;7.32;4.20;;;9.60;99.90;;;;;;4856638;29;20229;-73
2023/11/05 08:48:10;;;;;;;2.83;2.50;;;9.60;99.90;;;;;;4855657;29;20228;-73
2023/11/05 08:50:39;;;;;;;7.95;5.32;;;9.60;99.90;;;;;;4856594;29;20762;-74
2023/11/05 08:53:05;;;;;;;3.45;2.88;;;9.60;99.90;;;;;;4860175;29;20818;-74
2023/11/05 08:55:35;;;;;;;3.40;2.75;;;9.60;99.90;;;;;;4856622;29;20302;-74
2023/11/05 08:58:02;;;;;;;2.47;1.88;;;9.60;99.90;;;;;;4856720;29;20226;-74
2023/11/05 09:00:32;;;;;;;4.22;2.55;;;9.60;99.90;;;;;;4859622;29;20318;-74
2023/11/05 09:03:00;;;;;;;2.35;1.65;;;9.60;99.90;;;;;;4859344;29;20234;-74
2023/11/05 09:05:27;;;;;;;1.45;1.45;;;9.60;99.90;;;;;;4858878;29;20210;-74
2023/11/05 09:07:55;;;;;;;8.13;6.55;;;9.60;99.90;;;;;;4860744;29;20219;-74
2023/11/05 09:10:25;;;;;;;2.30;2.22;;;9.70;99.90;;;;;;4859209;29;20242;-75
2023/11/05 09:12:53;;;;;;;1.20;1.20;;;9.70;99.90;;;;;;4858717;29;20303;-75
2023/11/05 09:15:20;;;;;;;1.30;1.30;;;9.70;99.90;;;;;;4860224;29;20207;-75
2023/11/05 09:17:47;;;;;;;1.50;1.40;;;9.70;99.90;;;;;;4857638;29;20212;-75
2023/11/05 09:20:15;;;;;;;1.20;1.10;;;9.70;99.90;;;;;;4858414;29;20715;-75
2023/11/05 09:22:42;;;;;;;2.53;1.40;;;9.80;99.90;;;;;;4859322;29;20220;-74
2023/11/05 09:25:10;;;;;;;1.10;1.10;;;9.80;99.90;;;;;;4860466;29;20220;-75
2023/11/05 09:27:38;;;;;;;3.05;2.85;;;9.80;99.90;;;;;;4860280;29;20207;-74
2023/11/05 09:30:10;;;;;;;6.97;5.78;;;9.80;99.90;;;;;;4860390;29;20221;-75
2023/11/05 09:32:37;;;;;;;17.38;12.13;;;9.90;99.90;;;;;;4859664;29;20215;-74
2023/11/05 09:35:07;;;;;;;2.40;2.30;;;10.00;99.90;;;;;;4861691;29;20349;-74
2023/11/05 09:37:35;;;;;;;2.65;2.55;;;10.10;99.90;;;;;;4859532;29;20221;-73
2023/11/05 09:40:02;;;;;;;2.47;2.28;;;10.20;99.90;;;;;;4863062;29;20322;-73
2023/11/05 09:42:32;;;;;;;6.75;4.65;;;10.30;99.90;;;;;;4864531;29;20287;-75
2023/11/05 09:45:01;;;;;;;4.50;3.90;;;10.30;99.90;;;;;;4865809;29;20660;-75
2023/11/05 09:47:32;;;;;;;4.45;2.38;;;10.30;99.90;;;;;;4866472;29;20705;-74
2023/11/05 09:49:59;;;;;;;5.00;3.75;;;10.30;99.90;;;;;;4872979;29;20270;-74
2023/11/05 09:52:29;;;;;;;2.65;2.47;;;10.30;99.90;;;;;;4873921;29;20238;-75
2023/11/05 09:54:58;;;;;;;6.90;5.32;;;10.30;99.90;;;;;;4865678;29;20636;-74
2023/11/05 09:57:24;;;;;;;1.85;1.85;;;10.30;99.90;;;;;;4860756;29;20220;-74
2023/11/05 09:59:51;;;;;;;2.72;2.60;;;10.30;99.90;;;;;;4858046;29;20304;-74
2023/11/05 10:02:18;;;;;;;5.03;2.33;;;10.40;99.90;;;;;;4859457;29;20243;-74
2023/11/05 10:04:45;;;;;;;2.70;2.42;;;10.50;99.90;;;;;;4854743;29;20950;-75
2023/11/05 10:07:12;;;;;;;3.67;1.85;;;10.40;99.90;;;;;;4857285;29;20387;-75
2023/11/05 10:09:39;;;;;;;3.10;2.90;;;10.40;99.90;;;;;;4859678;29;20208;-74
2023/11/05 10:12:09;;;;;;;2.80;2.67;;;10.50;99.90;;;;;;4858483;29;20239;-75
2023/11/05 10:14:36;;;;;;;4.55;2.35;;;10.50;99.90;;;;;;4859029;29;20205;-74
2023/11/05 10:17:04;;;;;;;3.10;2.90;;;10.50;99.90;;;;;;4858652;29;20624;-74
2023/11/05 10:19:34;;;;;;;7.67;3.63;;;10.50;99.90;;;;;;4858400;29;20220;-74
2023/11/05 10:22:01;;;;;;;10.07;7.18;;;10.60;99.90;;;;;;4855216;29;20503;-74
2023/11/05 10:24:40;;;;;;;4.30;3.90;;;10.70;99.90;;;;;;4855910;29;20573;-74
2023/11/05 10:27:09;;;;;;;2.37;2.17;;;10.80;99.90;;;;;;4858122;29;20480;-74
2023/11/05 10:29:37;;;;;;;7.80;6.30;;;10.80;99.90;;;;;;4855357;29;20480;-73
2023/11/05 10:32:04;;;;;;;10.50;7.97;;;10.80;99.90;;;;;;4858657;29;20491;-73
2023/11/05 10:34:33;;;;;;;10.27;8.90;;;10.80;99.90;;;;;;4855284;29;20477;-74
2023/11/05 10:36:59;;;;;;;6.93;5.37;;;10.80;99.90;;;;;;4857197;29;20473;-73
2023/11/05 10:39:27;;;;;;;4.50;4.20;;;10.90;99.90;;;;;;4851657;29;20469;-73
2023/11/05 10:41:55;;;;;;;5.27;4.77;;;11.00;99.90;;;;;;4855942;29;20933;-74
2023/11/05 10:44:24;;;;;;;4.77;4.40;;;11.10;99.90;;;;;;4857873;29;20488;-74
2023/11/05 10:46:55;;;;;;;4.80;4.37;;;11.20;99.90;;;;;;4858890;29;20958;-74
2023/11/05 10:49:22;;;;;;;3.60;3.30;;;11.40;99.90;;;;;;4854279;29;20469;-74
2023/11/05 10:51:49;;;;;;;3.93;3.60;;;11.50;99.90;;;;;;4858947;29;20493;-74
2023/11/05 10:54:17;;;;;;;1.60;1.60;;;11.50;99.90;;;;;;4856043;29;20478;-75
2023/11/05 10:56:45;;;;;;;3.10;2.90;;;11.60;99.90;;;;;;4855459;29;20476;-74
2023/11/05 10:59:12;;;;;;;9.03;3.80;;;11.60;99.90;;;;;;4856374;29;20527;-74
2023/11/05 11:01:41;;;;;;;4.70;4.30;;;11.60;99.90;;;;;;4855440;29;21018;-75
2023/11/05 11:04:13;;;;;;;4.70;2.20;;;11.60;99.90;;;;;;4856869;29;20477;-74
2023/11/05 11:06:40;;;;;;;4.90;4.60;;;11.60;99.90;;;;;;4856001;29;20513;-74
2023/11/05 11:09:11;;;;;;;4.87;4.50;;;11.60;99.90;;;;;;4859343;29;20465;-75
2023/11/05 11:11:39;;;;;;;5.40;5.00;;;11.60;99.90;;;;;;4858418;29;20504;-73
2023/11/05 11:14:06;;;;;;;5.73;4.60;;;11.70;99.90;;;;;;4855707;29;20989;-74
2023/11/05 11:16:36;;;;;;;11.73;6.40;;;11.70;99.90;;;;;;4870939;23;20473;-72
2023/11/05 11:19:08;;;;;;;7.10;5.10;;;11.70;99.90;;;;;;4875343;29;21015;-73
2023/11/05 11:21:38;;;;;;;2.57;2.57;;;11.70;99.90;;;;;;4872587;29;20564;-72
2023/11/05 11:24:20;;;;;;;13.17;8.60;;;11.80;99.90;;;;;;4872073;29;20476;-71
2023/11/05 11:26:48;;;;;;;6.53;5.93;;;11.80;99.90;;;;;;4868259;29;20495;-73
2023/11/05 11:29:19;;;;;;;2.90;2.80;;;11.90;99.90;;;;;;4855134;29;20479;-74
2023/11/05 11:31:46;;;;;;;2.10;2.00;;;11.90;99.90;;;;;;4849925;29;20526;-73
2023/11/05 11:34:20;;;;;;;3.23;2.90;;;11.90;99.90;;;;;;4851400;29;20473;-72
2023/11/05 11:36:57;;;;;;;5.63;2.63;;;12.00;99.90;;;;;;4855353;29;20597;-72
2023/11/05 11:39:23;;;;;;;1.83;1.10;;;12.00;99.90;;;;;;4856572;29;22353;-73
2023/11/05 11:41:50;;;;;;;1.70;1.70;;;12.10;99.90;;;;;;4858055;29;20493;-73
2023/11/05 11:44:17;;;;;;;2.60;2.27;;;12.10;99.90;;;;;;4857016;29;20476;-72
2023/11/05 11:46:44;;;;;;;2.20;2.10;;;12.10;99.90;;;;;;4853625;29;20509;-72
2023/11/05 11:49:11;;;;;;;3.93;3.50;;;12.10;99.90;;;;;;4856399;29;20488;-73
2023/11/05 11:51:40;;;;;;;4.67;4.27;;;12.10;99.90;;;;;;4856967;29;20521;-72
2023/11/05 11:54:09;;;;;;;4.23;3.90;;;12.20;99.90;;;;;;4859600;29;20474;-74
2023/11/05 11:56:36;;;;;;;1.83;1.83;;;12.40;99.90;;;;;;4855855;29;20484;-72
2023/11/05 11:59:04;;;;;;;4.60;4.33;;;12.50;99.90;;;;;;4854780;29;20485;-72
2023/11/05 12:01:31;;;;;;;3.63;3.37;;;12.70;99.90;;;;;;4856987;29;20510;-73
2023/11/05 12:03:58;;;;;;;0.90;0.90;;;12.80;99.90;;;;;;4857322;29;20480;-72
2023/11/05 12:06:27;;;;;;;1.13;1.03;;;12.70;99.90;;;;;;4855346;29;20480;-74
2023/11/05 12:08:55;;;;;;;7.57;6.60;;;12.70;99.90;;;;;;4856525;29;20472;-73
2023/11/05 12:11:28;;;;;;;9.07;8.07;;;12.70;99.90;;;;;;4857473;29;20522;-72
2023/11/05 12:13:55;;;;;;;4.13;3.80;;;12.80;99.90;;;;;;4847524;29;20977;-73
2023/11/05 12:16:22;;;;;;;3.07;2.97;;;12.90;99.90;;;;;;4853890;29;20500;-73
2023/11/05 12:18:49;;;;;;;2.63;2.13;;;12.90;99.90;;;;;;4853928;29;20477;-75
2023/11/05 12:21:16;;;;;;;1.40;1.40;;;12.90;99.90;;;;;;4849774;29;20499;-72
2023/11/05 12:23:44;;;;;;;1.30;1.30;;;12.90;99.90;;;;;;4857622;29;20493;-73
2023/11/05 12:26:16;;;;;;;1.37;1.37;;;12.80;99.90;;;;;;4855368;29;20510;-74
2023/11/05 12:28:44;;;;;;;1.67;1.57;;;12.80;99.90;;;;;;4856336;29;21031;-74
2023/11/05 12:31:15;;;;;;;1.40;1.40;;;12.80;99.90;;;;;;4856154;29;20470;-74
2023/11/05 12:33:42;;;;;;;3.03;1.67;;;12.90;99.90;;;;;;4848012;29;20959;-74
2023/11/05 12:36:10;;;;;;;7.23;5.80;;;12.80;99.90;;;;;;4852537;29;20507;-73
2023/11/05 12:38:37;;;;;;;4.70;4.07;;;12.80;99.90;;;;;;4852357;29;20506;-73
2023/11/05 12:41:04;;;;;;;2.07;2.03;;;12.80;99.90;;;;;;4856600;29;20496;-74
2023/11/05 12:43:32;;;;;;;2.37;2.30;;;12.80;99.90;;;;;;4856093;29;20465;-73
2023/11/05 12:45:59;;;;;;;2.20;1.30;;;12.80;99.90;;;;;;4856188;29;20557;-74
2023/11/05 12:48:27;;;;;;;1.30;1.30;;;12.70;99.90;;;;;;4856272;29;20493;-73
2023/11/05 12:50:53;;;;;;;2.07;1.60;;;12.60;99.90;;;;;;4853561;29;20478;-73
2023/11/05 12:53:21;;;;;;;1.50;1.40;;;12.60;99.90;;;;;;4856264;29;20473;-73
2023/11/05 12:55:49;;;;;;;2.27;2.07;;;12.50;99.90;;;;;;4854693;29;20477;-74
2023/11/05 12:58:15;;;;;;;2.43;2.33;;;12.40;99.90;;;;;;4855599;29;20519;-72
2023/11/05 13:00:43;;;;;;;2.20;1.70;;;12.40;99.90;;;;;;4855222;29;20527;-72
2023/11/05 13:03:10;;;;;;;2.87;1.77;;;12.30;99.90;;;;;;4854461;29;20511;-73
2023/11/05 13:05:37;;;;;;;2.13;2.03;;;12.30;99.90;;;;;;4856092;29;20581;-73
2023/11/05 13:08:08;;;;;;;3.30;3.20;;;12.20;99.90;;;;;;4851649;29;20493;-73
2023/11/05 13:10:36;;;;;;;3.60;2.80;;;12.10;99.90;;;;;;4856058;29;20516;-73
2023/11/05 13:13:04;;;;;;;3.30;3.20;;;12.10;99.90;;;;;;4855163;29;21176;-71
2023/11/05 13:15:31;;;;;;;2.47;2.37;;;12.00;99.90;;;;;;4856479;29;20890;-71
2023/11/05 13:17:59;;;;;;;2.87;2.70;;;12.00;99.90;;;;;;4854684;29;20501;-70
2023/11/05 13:20:26;;;;;;;6.20;5.50;;;12.00;99.90;;;;;;4852849;29;20477;-71
2023/11/05 13:22:53;;;;;;;3.97;3.67;;;11.90;99.90;;;;;;4854554;29;20505;-70
2023/11/05 13:25:20;;;;;;;3.63;3.37;;;11.90;99.90;;;;;;4854708;29;20502;-73
2023/11/05 13:27:47;;;;;;;1.73;1.63;;;11.80;99.90;;;;;;4854960;29;20492;-71
2023/11/05 13:30:16;;;;;;;2.20;1.10;;;11.90;99.90;;;;;;4856915;29;20469;-71
2023/11/05 13:32:46;;;;;;;3.00;2.80;;;11.80;99.90;;;;;;4856685;29;20469;-71
2023/11/05 13:35:17;;;;;;;1.63;1.63;;;12.00;99.90;;;;;;4852848;29;20592;-71
2023/11/05 13:37:45;;;;;;;1.67;1.67;;;12.10;99.90;;;;;;4857045;29;20503;-71
2023/11/05 13:40:12;;;;;;;2.43;2.23;;;12.10;99.90;;;;;;4857865;29;20477;-71
2023/11/05 13:42:39;;;;;;;1.97;1.87;;;12.10;99.90;;;;;;4857885;29;20504;-72
2023/11/05 13:45:08;;;;;;;1.80;1.23;;;12.10;99.90;;;;;;4857816;29;20480;-71
2023/11/05 13:47:35;;;;;;;2.03;2.03;;;12.10;99.90;;;;;;4859709;29;20572;-71
2023/11/05 13:50:06;;;;;;;0.90;0.90;;;12.10;99.90;;;;;;4857779;29;20506;-71
2023/11/05 13:52:35;;;;;;;1.13;1.13;;;12.10;99.90;;;;;;4856545;29;20479;-72
2023/11/05 13:55:02;;;;;;;1.67;1.67;;;12.10;99.90;;;;;;4859655;29;20464;-71
2023/11/05 13:57:30;;;;;;;5.83;5.10;;;12.10;99.90;;;;;;4856488;29;20499;-72
2023/11/05 13:59:57;;;;;;;2.13;2.03;;;12.00;99.90;;;;;;4858216;29;20509;-73
2023/11/05 14:02:24;;;;;;;4.13;3.77;;;12.00;99.90;;;;;;4857839;29;20880;-71
2023/11/05 14:04:51;;;;;;;3.57;3.23;;;12.00;99.90;;;;;;4858084;29;21005;-71
2023/11/05 14:07:18;;;;;;;2.20;1.60;;;12.00;99.90;;;;;;4854888;29;20497;-72
2023/11/05 14:09:46;;;;;;;1.43;1.43;;;12.00;99.90;;;;;;4851206;29;20495;-73
2023/11/05 14:12:13;;;;;;;2.20;2.10;;;11.90;99.90;;;;;;4857747;29;20860;-73
2023/11/05 14:14:40;;;;;;;1.20;1.13;;;11.90;99.90;;;;;;4853252;29;20477;-72
2023/11/05 14:17:06;;;;;;;1.03;0.77;;;11.90;99.90;;;;;;4858431;29;20500;-72
2023/11/05 14:19:33;;;;;;;1.17;1.17;;;11.80;99.90;;;;;;4857667;29;20477;-73
2023/11/05 14:22:00;;;;;;;3.60;3.30;;;11.80;99.90;;;;;;4849586;29;20796;-71
2023/11/05 14:24:27;;;;;;;1.93;1.17;;;11.80;99.90;;;;;;4857053;29;20564;-72
2023/11/05 14:26:55;;;;;;;1.10;1.10;;;11.80;99.90;;;;;;4856648;29;20507;-71
2023/11/05 14:29:22;;;;;;;1.90;1.90;;;11.70;99.90;;;;;;4859119;29;20470;-72
2023/11/05 14:31:49;;;;;;;1.37;1.37;;;11.70;99.90;;;;;;4859131;29;21032;-71
2023/11/05 14:34:16;;;;;;;1.57;1.50;;;11.60;99.90;;;;;;4855469;29;20477;-72
2023/11/05 14:36:43;;;;;;;1.10;1.10;;;11.60;99.90;;;;;;4858984;29;20489;-71
2023/11/05 14:39:10;;;;;;;2.00;1.90;;;11.60;99.90;;;;;;4859087;29;20480;-73
2023/11/05 14:41:38;;;;;;;5.30;2.13;;;11.60;99.90;;;;;;4858482;29;20500;-71
2023/11/05 14:44:07;;;;;;;4.20;3.07;;;11.60;99.90;;;;;;4856481;29;20487;-72
2023/11/05 14:46:34;;;;;;;3.80;3.50;;;11.60;99.90;;;;;;4858424;29;20855;-72
2023/11/05 14:49:01;;;;;;;2.87;2.77;;;11.60;99.90;;;;;;4858435;29;20485;-72
2023/11/05 14:51:28;;;;;;;2.20;1.20;;;11.70;99.90;;;;;;4858530;29;20955;-71
2023/11/05 14:53:55;;;;;;;0.93;0.90;;;11.70;99.90;;;;;;4858532;29;20476;-70
2023/11/05 14:56:23;;;;;;;1.50;1.37;;;11.60;99.90;;;;;;4858371;29;20478;-72
2023/11/05 14:58:50;;;;;;;1.80;1.70;;;11.60;99.90;;;;;;4858742;29;20468;-71
2023/11/05 15:01:18;;;;;;;0.93;0.93;;;11.60;99.90;;;;;;4858367;29;20703;-71
2023/11/05 15:03:46;;;;;;;0.57;0.57;;;11.60;99.90;;;;;;4857753;29;20970;-71
2023/11/05 15:06:13;;;;;;;1.53;1.53;;;11.50;99.90;;;;;;4858509;29;20520;-71
2023/11/05 15:08:40;;;;;;;0.57;0.57;;;11.50;99.90;;;;;;4858255;29;20712;-71
2023/11/05 15:11:06;;;;;;;1.47;1.37;;;11.50;99.90;;;;;;4858441;29;20527;-72
2023/11/05 15:13:33;;;;;;;1.17;1.13;;;11.50;99.90;;;;;;4858141;29;20465;-71
2023/11/05 15:16:00;;;;;;;1.80;1.80;;;11.50;99.90;;;;;;4858413;29;20464;-72
2023/11/05 15:18:29;;;;;;;0.97;0.97;;;11.40;99.90;;;;;;4857067;29;20508;-71
2023/11/05 15:20:55;;;;;;;2.30;0.98;;;11.40;99.90;;;;;;4858243;29;20556;-71
2023/11/05 15:23:22;;;;;;;0.90;0.90;;;11.30;99.90;;;;;;4858075;29;20232;-73
2023/11/05 15:25:50;;;;;;;1.40;1.10;;;11.30;99.90;;;;;;4857773;29;20487;-71
2023/11/05 15:28:18;;;;;;;0.97;0.97;;;11.20;99.90;;;;;;4858259;29;20492;-71
2023/11/05 15:30:45;;;;;;;1.30;1.30;;;11.20;99.90;;;;;;4858096;29;20475;-72
2023/11/05 15:33:12;;;;;;;1.20;1.20;;;11.10;99.90;;;;;;4857507;29;20570;-71
2023/11/05 15:35:40;;;;;;;1.03;0.83;;;11.10;99.90;;;;;;4857639;29;20460;-71
2023/11/05 15:38:07;;;;;;;6.83;5.53;;;11.10;99.90;;;;;;4858121;29;20488;-72
2023/11/05 15:40:34;;;;;;;13.85;5.20;;;11.00;99.90;;;;;;4857854;29;20472;-72
2023/11/05 15:43:01;;;;;;;2.27;2.17;;;11.00;99.90;;;;;;4858276;29;20621;-72
2023/11/05 15:45:28;;;;;;;2.88;2.67;;;11.00;99.90;;;;;;4858282;29;20468;-71
2023/11/05 15:47:54;;;;;;;2.40;2.30;;;11.00;99.90;;;;;;4856843;29;20231;-72
2023/11/05 15:50:23;;;;;;;1.80;1.70;;;11.00;99.90;;;;;;4857760;29;20219;-71
2023/11/05 15:52:52;;;;;;;2.08;2.08;;;11.00;99.90;;;;;;4857823;29;20211;-72
2023/11/05 15:55:18;;;;;;;2.88;2.70;;;11.00;99.90;;;;;;4856683;29;20211;-73
2023/11/05 15:57:48;;;;;;;2.40;2.30;;;10.90;99.90;;;;;;4854573;29;20241;-71
2023/11/05 16:00:15;;;;;;;1.93;1.93;;;10.90;99.90;;;;;;4856552;29;20851;-72
2023/11/05 16:02:42;;;;;;;2.30;2.20;;;10.90;99.90;;;;;;4857616;29;20500;-72
2023/11/05 16:05:10;;;;;;;2.50;2.30;;;10.90;99.90;;;;;;4857919;29;20262;-72
2023/11/05 16:07:38;;;;;;;1.90;1.90;;;10.80;99.90;;;;;;4856763;29;20235;-72
2023/11/05 16:10:08;;;;;;;2.20;1.95;;;10.80;99.90;;;;;;4857396;29;20221;-72
2023/11/05 16:12:38;;;;;;;3.47;2.80;;;10.80;99.90;;;;;;4853950;29;20211;-72
2023/11/05 16:15:05;;;;;;;3.15;2.95;;;10.80;99.90;;;;;;4856069;29;20303;-73
2023/11/05 16:17:33;;;;;;;2.67;2.50;;;10.80;99.90;;;;;;4855510;29;20254;-73
2023/11/05 16:19:59;;;;;;;3.20;3.03;;;10.70;99.90;;;;;;4849864;29;20216;-74
2023/11/05 16:22:26;;;;;;;6.13;3.13;;;10.70;99.90;;;;;;4854194;29;20224;-73
2023/11/05 16:24:53;;;;;;;3.28;3.08;;;10.70;99.90;;;;;;4854108;29;20685;-74
2023/11/05 16:27:22;;;;;;;2.65;2.55;;;10.70;99.90;;;;;;4856453;29;22302;-73
2023/11/05 16:29:48;;;;;;;4.20;3.80;;;10.70;99.90;;;;;;4852343;29;20307;-73
2023/11/05 16:32:15;;;;;;;3.28;3.08;;;10.70;99.90;;;;;;4853262;29;20219;-72
2023/11/05 16:34:42;;;;;;;3.65;3.45;;;10.70;99.90;;;;;;4849118;29;20263;-73
2023/11/05 16:37:09;;;;;;;3.75;3.03;;;10.70;99.90;;;;;;4852505;29;20949;-72
2023/11/05 16:39:37;;;;;;;3.22;3.03;;;10.70;99.90;;;;;;4850458;29;20301;-73
2023/11/05 16:42:05;;;;;;;3.58;3.38;;;10.70;99.90;;;;;;4855546;29;20714;-72
2023/11/05 16:44:33;;;;;;;3.50;2.90;;;10.60;99.90;;;;;;4851820;29;20566;-74
2023/11/05 16:47:00;;;;;;;3.10;2.90;;;10.60;99.90;;;;;;4853603;29;20579;-72
2023/11/05 16:49:29;;;;;;;3.10;2.90;;;10.60;99.90;;;;;;4854904;29;20240;-73
2023/11/05 16:51:57;;;;;;;3.53;3.10;;;10.60;99.90;;;;;;4848549;29;20682;-74
2023/11/05 16:54:24;;;;;;;2.85;2.65;;;10.60;99.90;;;;;;4840560;29;20220;-75
2023/11/05 16:56:51;;;;;;;3.10;2.90;;;10.60;99.90;;;;;;4856377;29;20231;-73
2023/11/05 16:59:19;;;;;;;2.42;2.30;;;10.60;99.90;;;;;;4851921;29;20220;-74
2023/11/05 17:01:48;;;;;;;3.22;3.00;;;10.60;99.90;;;;;;4856277;29;20264;-73
2023/11/05 17:04:14;;;;;;;2.73;2.60;;;10.60;99.90;;;;;;4845310;29;20678;-74
2023/11/05 17:06:41;;;;;;;3.30;2.80;;;10.60;99.90;;;;;;4849257;29;20838;-74
2023/11/05 17:09:10;;;;;;;2.83;2.42;;;10.50;99.90;;;;;;4853903;29;20219;-74
2023/11/05 17:11:41;;;;;;;2.92;2.72;;;10.60;99.90;;;;;;4851784;29;20304;-74
2023/11/05 17:14:09;;;;;;;3.00;2.80;;;10.60;99.90;;;;;;4852469;29;20291;-74
2023/11/05 17:16:36;;;;;;;3.63;2.60;;;10.60;99.90;;;;;;4856301;29;20839;-75
2023/11/05 17:19:04;;;;;;;3.67;2.88;;;10.60;99.90;;;;;;4845539;29;20243;-73
2023/11/05 17:21:31;;;;;;;3.25;3.05;;;10.60;99.90;;;;;;4855566;29;20306;-71
2023/11/05 17:23:59;;;;;;;2.45;2.30;;;10.50;99.90;;;;;;4857439;29;20227;-73
2023/11/05 17:26:26;;;;;;;3.58;2.67;;;10.60;99.90;;;;;;4856431;29;20223;-73
2023/11/05 17:28:52;;;;;;;2.38;2.30;;;10.60;99.90;;;;;;4849137;29;20233;-71
2023/11/05 17:31:19;;;;;;;2.80;2.60;;;10.60;99.90;;;;;;4856059;29;20212;-73
2023/11/05 17:33:46;;;;;;;4.00;3.33;;;10.60;99.90;;;;;;4855626;29;20226;-73
2023/11/05 17:36:14;;;;;;;3.40;3.00;;;10.60;99.90;;;;;;4856996;29;20220;-75
2023/11/05 17:38:41;;;;;;;3.35;3.05;;;10.60;99.90;;;;;;4855811;29;20238;-75
2023/11/05 17:41:08;;;;;;;3.50;3.05;;;10.60;99.90;;;;;;4849026;29;20212;-75
2023/11/05 17:43:35;;;;;;;3.08;2.80;;;10.60;99.90;;;;;;4853807;29;20275;-76
2023/11/05 17:46:02;;;;;;;3.10;2.83;;;10.60;99.90;;;;;;4858302;29;20215;-74
2023/11/05 17:48:28;;;;;;;4.00;3.70;;;10.60;99.90;;;;;;4855949;29;20239;-74
2023/11/05 17:50:55;;;;;;;8.10;5.63;;;10.60;99.90;;;;;;4856546;29;20215;-74
2023/11/05 17:53:23;;;;;;;6.47;4.03;;;10.60;99.90;;;;;;4857365;29;20238;-74